Flight Track Log - Related Links

Times and Time Zones

All times are in EDT time to prevent confusion due to time zone crossing. See the BJS542 flight status page for this flight to view local times or setup timezone preferences in your user account.

Time Position Orientation Groundspeed Altitude Reporting Facility
EDT Latitude Longitude Course Direction KTS MPH feet Rate Location/Type
Sat 11:49:07 AM 33.9239 -118.4611 232° Southwest 277 319 2,900  Level Los Angeles Center
Sat 11:50:09 AM 33.8783 -118.5319 232° Southwest 270 311 5,100 2,661 Climbing Los Angeles Center
Sat 11:51:11 AM 33.8164 -118.5536 196° South 274 315 8,400 3,726 Climbing Los Angeles Center
Sat 11:52:13 AM 33.7203 -118.5250 166° South 304 350 12,800 3,659 Climbing Los Angeles Center
Sat 11:53:14 AM 33.6694 -118.4306 123° Southeast 357 411 15,900 2,439 Climbing Los Angeles Center
Sat 11:54:16 AM 33.6444 -118.3111 104° East 381 438 17,800 2,419 Climbing Los Angeles Center
Sat 11:55:18 AM 33.6450 -118.1847 90° East 389 448 20,900 2,516 Climbing Los Angeles Center
Sat 11:56:20 AM 33.6453 -118.0181 90° East 419 482 23,000 2,468 Climbing Los Angeles Center
Sat 11:57:22 AM 33.6450 -117.8675 90° East 449 517 26,000 2,758 Climbing Los Angeles Center
Sat 11:58:24 AM 33.6444 -117.7197 90° East 445 512 28,700 2,439 Climbing Los Angeles Center
Sat 11:59:25 AM 33.6425 -117.5669 91° East 456 525 31,000 2,000 Climbing Los Angeles Center
Sat 12:00:27 PM 33.6419 -117.4089 90° East 473 544 32,800 1,742 Climbing Los Angeles Center
Sat 12:01:29 PM 33.6408 -117.2472 90° East 485 558 34,600 1,853 Climbing Los Angeles Center
Sat 12:02:43 PM 33.6389 -117.0161 91° East 493 567 37,000 1,059 Climbing Los Angeles Center
Sat 12:03:45 PM 33.6392 -116.8478 90° East 502 578 37,000  Level Los Angeles Center
Sat 12:04:47 PM 33.6358 -116.6856 91° East 497 572 37,000  Level Los Angeles Center
Sat 12:05:49 PM 33.6342 -116.5253 91° East 483 556 37,000 -48 Level Los Angeles Center
Sat 12:06:51 PM 33.6308 -116.3647 91° East 481 554 36,900  Descending Los Angeles Center
Sat 12:07:52 PM 33.6297 -116.2072 90° East 476 548 37,000 49 Climbing Los Angeles Center
Sat 12:08:54 PM 33.6253 -116.0447 92° East 480 552 37,000  Level Los Angeles Center
Sat 12:09:56 PM 33.6217 -115.8531 91° East 478 550 37,000  Level Los Angeles Center
Sat 12:10:58 PM 33.6181 -115.6944 92° East 476 548 37,000  Level Los Angeles Center
Sat 12:12:00 PM 33.6156 -115.5361 91° East 475 547 37,000 -97 Level Los Angeles Center
Sat 12:13:02 PM 33.6097 -115.3772 92° East 476 548 36,800 -871 Descending Los Angeles Center
Sat 12:14:04 PM 33.6064 -115.2183 91° East 477 549 35,200 -1,500 Descending Los Angeles Center
Sat 12:15:06 PM 33.6031 -115.0611 91° East 474 545 33,700 -1,452 Descending Los Angeles Center
Sat 12:16:08 PM 33.5989 -114.9064 92° East 465 535 32,200 -1,839 Descending Los Angeles Center
Sat 12:17:10 PM 33.5875 -114.7214 94° East 464 534 29,900 -2,195 Descending Los Angeles Center
Sat 12:18:11 PM 33.5569 -114.5678 103° East 471 542 27,700 -1,756 Descending Los Angeles Center
Sat 12:19:13 PM 33.5278 -114.4192 103° East 461 531 26,300 -1,258 Descending Los Angeles Center
Sat 12:20:15 PM 33.4981 -114.2769 104° East 444 511 25,100 -677 Descending Los Angeles Center
Sat 12:21:17 PM 33.4711 -114.1378 103° East 432 497 24,900 -585 Descending Los Angeles Center
Sat 12:22:18 PM 33.4461 -114.0047 103° East 427 491 23,900 -1,024 Descending Albuquerque Center
Sat 12:23:20 PM 33.4464 -113.8317 90° East 433 498 22,800 -1,317 Descending Albuquerque Center
Sat 12:24:21 PM 33.4589 -113.6897 84° East 433 498 21,200 -1,854 Descending Albuquerque Center
Sat 12:25:23 PM 33.4728 -113.5478 83° East 430 495 19,000 -2,341 Descending Albuquerque Center
Sat 12:26:24 PM 33.4856 -113.4133 83° East 416 479 16,400 -2,390 Descending Albuquerque Center
Sat 12:27:26 PM 33.4981 -113.2861 83° East 396 456 14,100 -2,129 Descending Albuquerque Center
Sat 12:28:28 PM 33.5103 -113.1614 83° East 382 440 12,000 -1,561 Descending Albuquerque Center
Sat 12:29:29 PM 33.5211 -113.0450 84° East 364 419 10,900 -683 Descending Albuquerque Center
Sat 12:30:31 PM 33.5358 -112.9386 81° East 337 388 10,600 -878 Descending Albuquerque Center
Sat 12:31:32 PM 33.5842 -112.8547 55° Northeast 303 349 9,100 -1,805 Descending Albuquerque Center
Sat 12:32:34 PM 33.6342 -112.7594 58° Northeast 283 326 6,900 -1,500 Descending Albuquerque Center
Sat 12:33:36 PM 33.6664 -112.6972 58° Northeast 269 310 6,000 -488 Descending Albuquerque Center
Sat 12:34:37 PM 33.7100 -112.6081 60° Northeast 260 299 5,900  Descending Albuquerque Center
Sat 12:35:39 PM 33.7453 -112.5300 61° Northeast 263 303 6,000 48 Climbing Albuquerque Center
Sat 12:36:41 PM 33.7806 -112.4492 62° Northeast 271 312 6,000  Level Albuquerque Center
Sat 12:37:42 PM 33.7858 -112.3597 86° East 268 308 6,000  Level Albuquerque Center
Sat 12:38:44 PM 33.7736 -112.2667 99° East 281 323 6,000  Level Albuquerque Center
Sat 12:39:46 PM 33.7586 -112.1736 101° East 284 327 6,000 -488 Level Albuquerque Center
Sat 12:40:47 PM 33.7425 -112.0694 101° East 269 310 5,000 -878 Descending Albuquerque Center
Sat 12:41:49 PM 33.7267 -111.9908 104° East 248 285 4,200 -829 Descending Albuquerque Center
Sat 12:42:50 PM 33.7044 -111.9189 110° East 235 270 3,300 -634 Descending Albuquerque Center
Sat 12:43:52 PM 33.6758 -111.8664 123° Southeast 207 238 2,900 -726 Descending Albuquerque Center
Sat 12:44:54 PM 33.6394 -111.8914 210° Southwest 183 211 1,800 -629 Descending Albuquerque Center
Sat 12:45:56 PM 33.6128 -111.9250 226° Southwest 174 200 1,600 -194 Descending Albuquerque Center

Login

Don't have an account? Register now (free) for customized features, flight alerts, and more!